createdAt,value
2018-12-02T00:01:45.177Z,100042.16
2018-12-02T00:04:13.703Z,100037.20
2018-12-02T00:06:42.661Z,100030.48
2018-12-02T00:09:11.323Z,100030.81
2018-12-02T00:11:39.885Z,100026.22
2018-12-02T00:14:08.442Z,100020.95
2018-12-02T00:16:37.397Z,100016.67
2018-12-02T00:19:05.978Z,100005.52
2018-12-02T00:21:34.532Z,100011.78
2018-12-02T00:24:04.793Z,100000.34
2018-12-02T00:26:33.333Z,100005.84
2018-12-02T00:29:01.853Z,99995.70
2018-12-02T00:31:30.591Z,99990.31
2018-12-02T00:33:59.763Z,99991.91
2018-12-02T00:36:28.332Z,99981.41
2018-12-02T00:38:56.859Z,99973.34
2018-12-02T00:41:25.376Z,99974.05
2018-12-02T00:43:54.343Z,99966.14
2018-12-02T00:46:22.877Z,99956.36
2018-12-02T00:48:51.410Z,99958.83
2018-12-02T00:51:20.386Z,99955.65
2018-12-02T00:53:48.948Z,99950.41
2018-12-02T00:56:16.306Z,99947.27
2018-12-02T00:58:45.174Z,99945.46
2018-12-02T01:01:13.680Z,99937.60
2018-12-02T01:03:42.254Z,99926.50
2018-12-02T01:06:11.245Z,99927.52
2018-12-02T01:08:39.774Z,99926.00
2018-12-02T01:11:08.554Z,99929.03
2018-12-02T01:13:37.133Z,99920.34
2018-12-02T01:16:06.267Z,99926.95
2018-12-02T01:18:34.850Z,99919.95
2018-12-02T01:21:03.396Z,99922.83
2018-12-02T01:23:31.990Z,99909.02
2018-12-02T01:26:00.625Z,99910.16
2018-12-02T01:28:29.195Z,99906.06
2018-12-02T01:30:57.706Z,99909.16
2018-12-02T01:33:26.236Z,99909.52
2018-12-02T01:35:54.832Z,99900.63
2018-12-02T01:38:23.398Z,99905.35
2018-12-02T01:40:52.346Z,99896.44
2018-12-02T01:43:20.995Z,99897.09
2018-12-02T01:45:49.573Z,99892.53
2018-12-02T01:48:18.669Z,99894.66
2018-12-02T01:50:47.199Z,99892.16
2018-12-02T01:53:15.821Z,99892.16
2018-12-02T01:55:44.384Z,99895.45
2018-12-02T01:58:13.335Z,99882.20
2018-12-02T02:00:41.867Z,99883.80
2018-12-02T02:03:10.436Z,99874.86
2018-12-02T02:05:39.406Z,99864.81
2018-12-02T02:08:07.961Z,99875.73
2018-12-02T02:10:36.508Z,99865.54
2018-12-02T02:13:05.458Z,99861.25
2018-12-02T02:15:34.034Z,99856.80
2018-12-02T02:18:03.226Z,99849.89
2018-12-02T02:20:31.995Z,99848.83
2018-12-02T02:23:00.857Z,99846.93
2018-12-02T02:25:29.405Z,99838.50
2018-12-02T02:27:58.863Z,99832.14
2018-12-02T02:30:28.620Z,99832.34
2018-12-02T02:32:57.215Z,99827.52
2018-12-02T02:35:25.707Z,99824.34
2018-12-02T02:37:56.585Z,99819.42
2018-12-02T02:40:27.256Z,99818.96
2018-12-02T02:42:55.761Z,99820.77
2018-12-02T02:45:24.369Z,99813.56
2018-12-02T02:47:52.953Z,99804.05
2018-12-02T02:50:22.409Z,99802.81
2018-12-02T02:52:52.886Z,99793.15
2018-12-02T02:55:21.780Z,99793.80
2018-12-02T02:57:50.380Z,99787.37
2018-12-02T03:00:19.845Z,99771.36
2018-12-02T03:02:48.334Z,99779.23
2018-12-02T03:05:17.871Z,99778.36
2018-12-02T03:07:46.520Z,99770.59
2018-12-02T03:10:17.968Z,99767.88
2018-12-02T03:12:47.351Z,99763.77
2018-12-02T03:15:16.639Z,99755.25
2018-12-02T03:17:45.234Z,99756.28
2018-12-02T03:20:14.657Z,99746.23
2018-12-02T03:22:44.592Z,99744.28
2018-12-02T03:25:15.298Z,99738.94
2018-12-02T03:27:43.946Z,99735.00
2018-12-02T03:30:28.571Z,99732.00
2018-12-02T03:32:57.177Z,99718.06
2018-12-02T03:35:26.942Z,99717.23
2018-12-02T03:37:56.376Z,99714.72
2018-12-02T03:40:26.752Z,99709.26
2018-12-02T03:42:55.822Z,99701.66
2018-12-02T03:45:25.283Z,99699.80
2018-12-02T03:47:53.861Z,99694.84
2018-12-02T03:50:23.095Z,99693.45
2018-12-02T03:52:52.034Z,99688.83
2018-12-02T03:55:20.577Z,99687.06
2018-12-02T03:57:49.179Z,99685.30
2018-12-02T04:00:23.478Z,99687.16
2018-12-02T04:02:52.831Z,99688.47
2018-12-02T04:05:23.052Z,99688.27
2018-12-02T04:07:51.867Z,99683.59
2018-12-02T04:10:20.723Z,99687.08
2018-12-02T04:12:50.164Z,99683.05
2018-12-02T04:15:23.915Z,99682.94
2018-12-02T04:17:52.561Z,99683.59
2018-12-02T04:20:21.483Z,99688.73
2018-12-02T04:22:52.586Z,99682.94
2018-12-02T04:25:22.158Z,99683.78
2018-12-02T04:27:50.752Z,99685.19
2018-12-02T04:30:20.101Z,99681.14
2018-12-02T04:32:50.833Z,99680.37
2018-12-02T04:35:23.162Z,99679.23
2018-12-02T04:37:51.697Z,99681.03
2018-12-02T04:40:20.315Z,99676.73
2018-12-02T04:42:49.091Z,99670.10
2018-12-02T04:45:18.408Z,99678.25
2018-12-02T04:47:47.352Z,99671.88
2018-12-02T04:50:19.869Z,99667.28
2018-12-02T04:52:48.507Z,99662.87
2018-12-02T04:55:17.059Z,99663.52
2018-12-02T04:57:45.923Z,99655.47
2018-12-02T05:00:15.440Z,99653.31
2018-12-02T05:02:44.641Z,99643.52
2018-12-02T05:05:14.296Z,99641.63
2018-12-02T05:07:43.106Z,99634.78
2018-12-02T05:10:15.302Z,99630.79
2018-12-02T05:12:44.015Z,99633.11
2018-12-02T05:15:15.766Z,99622.17
2018-12-02T05:17:44.255Z,99623.41
2018-12-02T05:20:13.747Z,99619.00
2018-12-02T05:22:42.210Z,99614.03
2018-12-02T05:25:17.578Z,99605.98
2018-12-02T05:27:40.579Z,99606.90
2018-12-02T05:30:11.369Z,99609.61
2018-12-02T05:32:40.252Z,99601.20
2018-12-02T05:35:09.593Z,99606.93
2018-12-02T05:37:38.067Z,99601.86
2018-12-02T05:40:09.765Z,99599.70
2018-12-02T05:42:38.573Z,99599.70
2018-12-02T05:45:09.360Z,99599.34
2018-12-02T05:47:37.826Z,99599.14
2018-12-02T05:50:23.484Z,99595.88
2018-12-02T05:52:54.956Z,99585.95
2018-12-02T05:55:24.733Z,99577.16
2018-12-02T05:57:53.725Z,99589.72
2018-12-02T06:00:22.724Z,99576.59
2018-12-02T06:02:51.265Z,99574.17
2018-12-02T06:05:19.797Z,99565.93
2018-12-02T06:07:48.796Z,99567.11
2018-12-02T06:10:18.216Z,99563.09
2018-12-02T06:12:46.778Z,99569.56
2018-12-02T06:15:17.972Z,99570.22
2018-12-02T06:17:46.512Z,99570.12
2018-12-02T06:20:17.771Z,99567.21
2018-12-02T06:22:46.461Z,99552.63
2018-12-02T06:25:15.322Z,99559.09
2018-12-02T06:27:44.021Z,99554.42
2018-12-02T06:30:15.248Z,99552.88
2018-12-02T06:32:44.043Z,99558.77
2018-12-02T06:35:13.697Z,99549.16
2018-12-02T06:37:42.265Z,99558.31
2018-12-02T06:40:17.818Z,99551.19
2018-12-02T06:42:46.343Z,99557.17
2018-12-02T06:45:15.033Z,99548.41
2018-12-02T06:47:43.623Z,99559.52
2018-12-02T06:50:19.210Z,99556.74
2018-12-02T06:52:47.773Z,99549.25
2018-12-02T06:55:35.207Z,99540.28
2018-12-02T06:58:20.090Z,99551.80
2018-12-02T07:01:02.000Z,99547.32
2018-12-02T07:03:36.563Z,99547.88
2018-12-02T07:06:07.120Z,99546.13
2018-12-02T07:08:35.658Z,99550.36
2018-12-02T07:11:04.247Z,99547.88
2018-12-02T07:13:32.757Z,99549.16
2018-12-02T07:16:01.263Z,99534.50
2018-12-02T07:18:30.811Z,99533.94
2018-12-02T07:21:00.403Z,99533.55
2018-12-02T07:23:30.584Z,99537.11
2018-12-02T07:26:02.837Z,99533.38
2018-12-02T07:28:31.432Z,99534.33
2018-12-02T07:30:59.967Z,99534.98
2018-12-02T07:33:28.591Z,99532.43
2018-12-02T07:35:57.605Z,99526.20
2018-12-02T07:40:34.146Z,99523.20
2018-12-02T07:43:03.467Z,99513.84
2018-12-02T07:45:32.302Z,99508.50
2018-12-02T07:48:00.790Z,99509.81
2018-12-02T07:50:29.294Z,99502.64
2018-12-02T07:52:57.807Z,99506.37
2018-12-02T07:55:26.385Z,99510.77
2018-12-02T07:57:54.988Z,99506.41
2018-12-02T08:00:23.868Z,99507.88
2018-12-02T08:02:52.450Z,99509.66
2018-12-02T08:05:20.930Z,99498.23
2018-12-02T08:07:50.445Z,99502.84
2018-12-02T08:10:19.431Z,99503.20
2018-12-02T08:12:47.982Z,99501.05
2018-12-02T08:15:18.556Z,99493.09
2018-12-02T08:17:47.564Z,99485.81
2018-12-02T08:20:17.849Z,99482.45
2018-12-02T08:22:51.371Z,99478.33
2018-12-02T08:25:16.938Z,99475.34
2018-12-02T08:27:45.474Z,99471.33
2018-12-02T08:30:18.543Z,99470.38
2018-12-02T08:32:49.205Z,99474.52
2018-12-02T08:35:18.742Z,99473.84
2018-12-02T08:37:48.630Z,99473.20
2018-12-02T08:40:17.289Z,99470.87
2018-12-02T08:42:46.348Z,99470.56
2018-12-02T08:45:15.850Z,99470.48
2018-12-02T08:47:44.917Z,99461.21
2018-12-02T08:50:16.644Z,99463.94
2018-12-02T08:52:45.641Z,99453.06
2018-12-02T08:55:17.069Z,99457.28
2018-12-02T08:57:46.301Z,99453.88
2018-12-02T09:00:17.527Z,99455.19
2018-12-02T09:02:48.176Z,99453.55
2018-12-02T09:05:17.150Z,99445.89
2018-12-02T09:07:45.701Z,99448.42
2018-12-02T09:10:24.033Z,99452.73
2018-12-02T09:12:56.056Z,99449.91
2018-12-02T09:15:24.623Z,99448.01
2018-12-02T09:17:53.214Z,99449.21
2018-12-02T09:20:28.060Z,99453.47
2018-12-02T09:22:57.101Z,99443.53
2018-12-02T09:25:25.873Z,99444.25
2018-12-02T09:27:54.487Z,99439.39
2018-12-02T09:30:26.384Z,99437.42
2018-12-02T09:32:54.937Z,99433.66
2018-12-02T09:35:23.473Z,99440.82
2018-12-02T09:37:52.412Z,99441.59
2018-12-02T09:40:20.912Z,99442.04
2018-12-02T09:42:51.700Z,99438.07
2018-12-02T09:45:28.039Z,99453.45
2018-12-02T09:47:59.011Z,99454.94
2018-12-02T09:50:27.562Z,99451.44
2018-12-02T09:52:56.829Z,99451.69
2018-12-02T09:55:27.623Z,99460.23
2018-12-02T09:57:57.186Z,99456.52
2018-12-02T10:00:25.855Z,99453.49
2018-12-02T10:02:54.376Z,99456.80
2018-12-02T10:05:23.358Z,99451.22
2018-12-02T10:07:51.949Z,99449.17
2018-12-02T10:10:23.043Z,99446.27
2018-12-02T10:12:56.475Z,99451.88
2018-12-02T10:15:25.026Z,99445.37
2018-12-02T10:17:53.645Z,99450.92
2018-12-02T10:20:22.262Z,99446.69
2018-12-02T10:22:50.818Z,99444.09
2018-12-02T10:25:20.225Z,99433.41
2018-12-02T10:27:48.882Z,99435.94
2018-12-02T10:30:20.259Z,99433.48
2018-12-02T10:32:49.595Z,99438.41
2018-12-02T10:35:18.209Z,99435.16
2018-12-02T10:37:47.018Z,99434.77
2018-12-02T10:40:19.904Z,99434.48
2018-12-02T10:42:49.200Z,99433.37
2018-12-02T10:45:20.678Z,99432.14
2018-12-02T10:47:50.494Z,99431.27
2018-12-02T10:50:22.303Z,99430.88
2018-12-02T10:52:51.610Z,99431.25
2018-12-02T10:55:25.520Z,99429.41
2018-12-02T10:57:54.262Z,99424.31
2018-12-02T11:00:28.079Z,99426.62
2018-12-02T11:02:56.680Z,99428.95
2018-12-02T11:05:25.350Z,99437.05
2018-12-02T11:07:54.489Z,99428.89
2018-12-02T11:10:23.096Z,99420.77
2018-12-02T11:12:52.017Z,99426.07
2018-12-02T11:15:20.975Z,99427.34
2018-12-02T11:17:49.578Z,99415.98
2018-12-02T11:20:18.138Z,99415.64
2018-12-02T11:25:46.002Z,99416.55
2018-12-02T11:28:15.007Z,99423.03
2018-12-02T11:30:43.613Z,99420.72
2018-12-02T11:33:12.214Z,99427.96
2018-12-02T11:35:41.109Z,99411.00
2018-12-02T11:38:09.870Z,99426.91
2018-12-02T11:40:39.468Z,99417.89
2018-12-02T11:43:09.076Z,99412.45
2018-12-02T11:45:37.730Z,99409.53
2018-12-02T11:48:08.104Z,99406.78
2018-12-02T11:50:37.311Z,99402.94
2018-12-02T11:53:06.300Z,99392.33
2018-12-02T11:55:34.923Z,99400.83
2018-12-02T11:58:05.724Z,99390.84
2018-12-02T12:00:35.988Z,99401.24
2018-12-02T12:03:04.535Z,99392.67
2018-12-02T12:05:33.406Z,99398.15
2018-12-02T12:08:02.645Z,99391.63
2018-12-02T12:10:31.251Z,99403.13
2018-12-02T12:13:01.050Z,99404.88
2018-12-02T12:15:30.644Z,99391.84
2018-12-02T12:17:59.868Z,99411.75
2018-12-02T12:22:57.038Z,99414.72
2018-12-02T12:25:25.979Z,99421.58
2018-12-02T12:27:55.920Z,99424.98
2018-12-02T12:30:27.352Z,99433.16
2018-12-02T12:32:56.045Z,99434.41
2018-12-02T12:35:25.307Z,99431.50
2018-12-02T12:37:53.982Z,99417.28
2018-12-02T12:40:25.647Z,99418.95
2018-12-02T12:42:59.246Z,99417.77
2018-12-02T12:47:50.824Z,99418.02
2018-12-02T12:50:19.890Z,99415.77
2018-12-02T12:52:48.461Z,99417.94
2018-12-02T12:55:17.579Z,99419.98
2018-12-02T12:57:46.883Z,99417.30
2018-12-02T13:00:19.726Z,99433.23
2018-12-02T13:02:48.421Z,99422.48
2018-12-02T13:05:19.537Z,99425.97
2018-12-02T13:07:48.267Z,99430.94
2018-12-02T13:10:17.492Z,99423.63
2018-12-02T13:12:46.535Z,99428.52
2018-12-02T13:15:18.001Z,99431.52
2018-12-02T13:17:48.316Z,99425.28
2018-12-02T13:20:19.066Z,99446.64
2018-12-02T13:22:48.471Z,99449.02
2018-12-02T13:25:17.146Z,99442.19
2018-12-02T13:27:46.684Z,99450.00
2018-12-02T13:30:17.118Z,99448.98
2018-12-02T13:32:46.673Z,99437.73
2018-12-02T13:35:15.567Z,99442.78
2018-12-02T13:37:44.104Z,99449.88
2018-12-02T13:40:14.939Z,99445.45
2018-12-02T13:42:45.927Z,99440.53
2018-12-02T13:45:16.779Z,99442.58
2018-12-02T13:47:45.355Z,99445.80
2018-12-02T13:50:15.326Z,99451.91
2018-12-02T13:52:43.987Z,99450.00
2018-12-02T13:55:15.442Z,99442.06
2018-12-02T13:57:44.507Z,99433.95
2018-12-02T14:00:18.108Z,99437.31
2018-12-02T14:02:54.473Z,99447.88
2018-12-02T14:05:23.717Z,99437.56
2018-12-02T14:07:52.286Z,99438.06
2018-12-02T14:10:20.902Z,99437.59
2018-12-02T14:12:54.969Z,99443.12
2018-12-02T14:15:38.821Z,99446.47
2018-12-02T14:18:40.767Z,99457.26
2018-12-02T14:21:09.394Z,99452.94
2018-12-02T14:23:40.691Z,99460.14
2018-12-02T14:26:10.830Z,99462.66
2018-12-02T14:28:45.093Z,99458.36
2018-12-02T14:31:13.746Z,99462.45
2018-12-02T14:33:42.340Z,99459.92
2018-12-02T14:36:11.244Z,99464.11
2018-12-02T14:38:40.342Z,99460.27
2018-12-02T14:41:08.409Z,99464.56
2018-12-02T14:43:37.485Z,99462.55
2018-12-02T14:46:06.189Z,99461.11
2018-12-02T14:48:35.307Z,99463.38
2018-12-02T14:51:04.229Z,99469.83
2018-12-02T14:53:32.811Z,99475.86
2018-12-02T14:56:01.514Z,99474.29
2018-12-02T14:58:30.386Z,99478.21
2018-12-02T15:00:59.735Z,99476.42
2018-12-02T15:03:28.362Z,99475.50
2018-12-02T15:05:57.282Z,99471.05
2018-12-02T15:08:26.136Z,99486.64
2018-12-02T15:10:54.729Z,99484.72
2018-12-02T15:13:23.228Z,99481.38
2018-12-02T15:15:52.057Z,99486.36
2018-12-02T15:18:20.670Z,99485.05
2018-12-02T15:20:49.372Z,99483.73
2018-12-02T15:23:18.214Z,99497.11
2018-12-02T15:25:46.862Z,99490.91
2018-12-02T15:28:15.495Z,99497.03
2018-12-02T15:30:44.532Z,99499.57
2018-12-02T15:33:13.199Z,99498.72
2018-12-02T15:35:41.878Z,99509.73
2018-12-02T15:38:10.699Z,99510.58
2018-12-02T15:40:39.571Z,99508.66
2018-12-02T15:43:08.225Z,99516.06
2018-12-02T15:45:36.875Z,99493.55
2018-12-02T15:48:05.496Z,99514.12
2018-12-02T15:50:34.069Z,99517.84
2018-12-02T15:53:02.937Z,99517.04
2018-12-02T15:55:32.733Z,99502.64
2018-12-02T15:58:04.669Z,99507.22
2018-12-02T16:00:35.888Z,99506.13
2018-12-02T16:03:04.499Z,99514.16
2018-12-02T16:05:33.058Z,99515.13
2018-12-02T16:08:02.582Z,99520.86
2018-12-02T16:10:31.223Z,99516.35
2018-12-02T16:12:59.762Z,99521.59
2018-12-02T16:15:32.033Z,99523.97
2018-12-02T16:18:00.730Z,99523.97
2018-12-02T16:20:43.889Z,99520.73
2018-12-02T16:23:13.016Z,99525.62
2018-12-02T16:25:41.587Z,99527.67
2018-12-02T16:28:10.189Z,99523.16
2018-12-02T16:30:39.098Z,99525.41
2018-12-02T16:33:07.646Z,99523.92
2018-12-02T16:35:36.408Z,99521.80
2018-12-02T16:38:08.258Z,99515.81
2018-12-02T16:40:36.814Z,99526.27
2018-12-02T16:43:05.683Z,99531.36
2018-12-02T16:45:34.515Z,99534.25
2018-12-02T16:48:03.791Z,99527.08
2018-12-02T16:50:35.402Z,99527.87
2018-12-02T16:53:09.109Z,99528.38
2018-12-02T16:55:40.050Z,99539.30
2018-12-02T16:58:16.035Z,99536.67
2018-12-02T17:00:53.499Z,99541.34
2018-12-02T17:03:22.360Z,99544.00
2018-12-02T17:05:50.974Z,99527.53
2018-12-02T17:08:20.000Z,99534.58
2018-12-02T17:10:50.419Z,99545.98
2018-12-02T17:13:17.593Z,99538.42
2018-12-02T17:15:46.272Z,99543.20
2018-12-02T17:18:15.296Z,99538.81
2018-12-02T17:20:43.866Z,99528.59
2018-12-02T17:23:12.474Z,99530.84
2018-12-02T17:25:41.533Z,99542.69
2018-12-02T17:28:10.181Z,99536.96
2018-12-02T17:30:49.051Z,99536.31
2018-12-02T17:33:17.963Z,99528.21
2018-12-02T17:35:46.626Z,99527.23
2018-12-02T17:38:15.314Z,99524.33
2018-12-02T17:40:45.260Z,99531.56
2018-12-02T17:43:13.930Z,99530.24
2018-12-02T17:45:42.648Z,99522.09
2018-12-02T17:48:11.249Z,99523.66
2018-12-02T17:50:39.873Z,99526.75
2018-12-02T17:53:10.750Z,99526.03
2018-12-02T17:55:40.148Z,99519.38
2018-12-02T17:58:08.758Z,99519.33
2018-12-02T18:00:37.669Z,99524.72
2018-12-02T18:03:07.895Z,99529.00
2018-12-02T18:05:41.446Z,99528.73
2018-12-02T18:08:10.339Z,99536.16
2018-12-02T18:10:39.013Z,99526.11
2018-12-02T18:13:07.615Z,99524.08
2018-12-02T18:15:36.574Z,99530.66
2018-12-02T18:18:06.502Z,99529.39
2018-12-02T18:21:37.718Z,99528.87
2018-12-02T18:24:06.734Z,99536.77
2018-12-02T18:26:35.315Z,99551.13
2018-12-02T18:29:04.214Z,99552.91
2018-12-02T18:31:32.793Z,99549.80
2018-12-02T18:34:03.334Z,99566.73
2018-12-02T18:36:33.908Z,99560.52
2018-12-02T18:39:02.721Z,99560.02
2018-12-02T18:41:38.761Z,99562.12
2018-12-02T18:44:09.350Z,99551.52
2018-12-02T18:46:38.021Z,99533.86
2018-12-02T18:49:06.718Z,99525.25
2018-12-02T18:51:35.654Z,99517.08
2018-12-02T18:54:07.155Z,99507.86
2018-12-02T18:56:35.787Z,99517.93
2018-12-02T18:59:04.678Z,99535.06
2018-12-02T19:01:33.352Z,99529.06
2018-12-02T19:04:04.089Z,99539.78
2018-12-02T19:06:32.929Z,99532.36
2018-12-02T19:09:01.556Z,99535.43
2018-12-02T19:11:30.144Z,99531.69
2018-12-02T19:13:59.073Z,99537.42
2018-12-02T19:16:27.650Z,99533.06
2018-12-02T19:18:56.237Z,99544.13
2018-12-02T19:21:26.954Z,99547.74
2018-12-02T19:23:57.409Z,99538.21
2018-12-02T19:26:26.066Z,99531.51
2018-12-02T19:28:54.904Z,99534.39
2018-12-02T19:31:24.248Z,99544.28
2018-12-02T19:33:54.524Z,99525.06
2018-12-02T19:36:27.204Z,99536.09
2018-12-02T19:38:55.845Z,99531.84
2018-12-02T19:41:24.377Z,99522.03
2018-12-02T19:43:53.202Z,99525.76
2018-12-02T19:46:21.805Z,99528.67
2018-12-02T19:48:50.595Z,99532.95
2018-12-02T19:51:19.461Z,99537.60
2018-12-02T19:53:48.080Z,99538.14
2018-12-02T19:56:17.249Z,99540.39
2018-12-02T19:58:47.069Z,99540.47
2018-12-02T20:01:15.596Z,99552.67
2018-12-02T20:03:44.178Z,99545.79
2018-12-02T20:06:12.786Z,99540.77
2018-12-02T20:08:41.806Z,99545.47
2018-12-02T20:11:10.443Z,99542.83
2018-12-02T20:13:38.976Z,99554.22
2018-12-02T20:16:13.021Z,99553.63
2018-12-02T20:18:41.578Z,99549.68
2018-12-02T20:21:10.570Z,99541.44
2018-12-02T20:23:44.741Z,99539.52
2018-12-02T20:26:13.411Z,99547.76
2018-12-02T20:28:45.280Z,99559.40
2018-12-02T20:31:17.634Z,99543.95
2018-12-02T20:33:46.220Z,99539.46
2018-12-02T20:36:15.417Z,99542.67
2018-12-02T20:38:43.963Z,99544.08
2018-12-02T20:41:12.589Z,99540.77
2018-12-02T20:43:41.419Z,99535.50
2018-12-02T20:46:10.089Z,99530.97
2018-12-02T20:48:38.608Z,99539.84
2018-12-02T20:51:07.230Z,99531.56
2018-12-02T20:53:36.052Z,99547.82
2018-12-02T20:56:05.405Z,99546.58
2018-12-02T20:58:34.814Z,99539.52
2018-12-02T21:01:03.668Z,99545.98
2018-12-02T21:03:35.379Z,99537.80
2018-12-02T21:06:07.065Z,99536.03
2018-12-02T21:08:35.647Z,99540.70
2018-12-02T21:11:04.201Z,99540.59
2018-12-02T21:13:33.647Z,99538.21
2018-12-02T21:16:03.982Z,99529.01
2018-12-02T21:18:32.522Z,99529.12
2018-12-02T21:21:01.078Z,99523.35
2018-12-02T21:23:29.970Z,99518.98
2018-12-02T21:25:59.074Z,99513.80
2018-12-02T21:28:27.658Z,99516.09
2018-12-02T21:30:56.491Z,99510.96
2018-12-02T21:33:24.968Z,99509.17
2018-12-02T21:35:53.549Z,99520.94
2018-12-02T21:38:22.095Z,99519.33
2018-12-02T21:40:51.104Z,99516.61
2018-12-02T21:43:19.689Z,99517.92
2018-12-02T21:45:48.259Z,99519.80
2018-12-02T21:48:18.641Z,99517.53
2018-12-02T21:50:51.126Z,99517.66
2018-12-02T21:53:20.074Z,99518.72
2018-12-02T21:55:49.043Z,99512.62
2018-12-02T21:58:17.885Z,99511.81
2018-12-02T22:00:52.136Z,99508.53
2018-12-02T22:03:20.684Z,99504.84
2018-12-02T22:05:49.702Z,99516.55
2018-12-02T22:08:18.383Z,99511.22
2018-12-02T22:10:47.869Z,99509.77
2018-12-02T22:13:16.451Z,99515.03
2018-12-02T22:15:45.050Z,99511.56
2018-12-02T22:18:13.887Z,99517.72
2018-12-02T22:20:42.429Z,99509.77
2018-12-02T22:23:10.970Z,99499.28
2018-12-02T22:25:39.585Z,99491.46
2018-12-02T22:28:09.204Z,99494.82
2018-12-02T22:30:38.050Z,99509.97
2018-12-02T22:33:07.100Z,99513.00
2018-12-02T22:35:36.044Z,99500.67
2018-12-02T22:38:06.133Z,99508.20
2018-12-02T22:40:34.790Z,99508.11
2018-12-02T22:43:03.398Z,99503.66
2018-12-02T22:45:31.966Z,99499.62
2018-12-02T22:48:00.815Z,99500.34
2018-12-02T22:50:30.698Z,99497.54
2018-12-02T22:53:00.171Z,99501.45
2018-12-02T22:55:28.786Z,99499.28
2018-12-02T22:57:57.570Z,99487.30
2018-12-02T23:00:35.503Z,99488.74
2018-12-02T23:03:06.725Z,99487.30
2018-12-02T23:05:35.251Z,99489.17
2018-12-02T23:08:04.382Z,99482.75
2018-12-02T23:10:32.956Z,99487.89
2018-12-02T23:13:01.767Z,99480.67
2018-12-02T23:15:30.348Z,99482.50
2018-12-02T23:17:58.887Z,99478.55
2018-12-02T23:20:27.681Z,99470.30
2018-12-02T23:22:56.205Z,99463.59
2018-12-02T23:25:24.755Z,99461.43
2018-12-02T23:27:53.358Z,99469.92
2018-12-02T23:30:23.958Z,99483.69
2018-12-02T23:32:52.535Z,99478.08
2018-12-02T23:35:21.151Z,99472.00
2018-12-02T23:37:49.693Z,99470.18
2018-12-02T23:40:19.342Z,99456.41
2018-12-02T23:42:47.870Z,99468.14
2018-12-02T23:45:17.280Z,99475.32
2018-12-02T23:47:45.865Z,99467.16
2018-12-02T23:50:16.221Z,99453.06
2018-12-02T23:52:44.838Z,99444.69
2018-12-02T23:55:14.819Z,99444.83
2018-12-02T23:57:43.526Z,99441.33
